Latest Weather Observations for Middle Percy Island

IDQ60801

Issued at 5:02 am EST Thursday 29 June 2017 (issued every 30 minutes, with the page automatically refreshed every 10 minutes)

About weather observations | Map of weather stations | Latest weather observations for QLD | Other Formats
Station Details ID: 200001 Name: MIDDLE PERCY ISLAND Lat: -21.66 Lon: 150.27 Height: 208.7 m
Data from the previous 72 hours. | See also: Recent months at Middle Percy Island
Date/Time
EST
Temp
°C
App
Temp
°C
Dew
Point
°C
Rel
Hum
%
Delta-T
°C
Wind Press
QNH
hPa
Press
MSL
hPa
Rain since
9am
mm
Dir  Spd
km/h
Gust
km/h
Spd
kts
Gust
kts
29/05:00am 18.9 18.0 18.2 96 0.4 ESE 20 32 11 17 1020.9 1020.2 4.4
29/04:30am 18.7 18.1 18.4 98 0.2 ESE 19 26 10 14 1020.8 1020.1 4.4
29/04:00am 18.8 18.0 18.5 98 0.2 ESE 20 30 11 16 1020.8 1020.1 4.4
29/03:30am 18.7 17.9 18.4 98 0.2 ESE 20 30 11 16 1020.9 1020.2 4.2
29/03:00am 18.8 18.0 18.5 98 0.2 ESE 20 28 11 15 1021.1 1020.4 4.0
29/02:30am 18.8 16.9 18.5 98 0.2 ESE 26 35 14 19 1021.3 1020.6 3.2
29/02:00am 18.9 18.2 18.6 98 0.2 ESE 20 32 11 17 1021.5 1020.9 2.6
29/01:30am 19.2 18.8 18.9 98 0.2 ESE 19 33 10 18 1021.6 1021.0 2.2
29/01:00am 19.3 18.9 18.8 97 0.3 ESE 19 35 10 19 1021.9 1021.3 2.0
29/12:30am 19.2 17.8 18.7 97 0.3 ESE 24 41 13 22 1022.0 1021.4 1.6
29/12:00am 19.3 19.2 18.8 97 0.3 SE 17 26 9 14 1022.0 1021.4 0.8
 
Date/Time
EST
Temp
°C
App
Temp
°C
Dew
Point
°C
Rel
Hum
%
Delta-T
°C
Wind Press
QNH
hPa
Press
MSL
hPa
Rain since
9am
mm
Dir  Spd
km/h
Gust
km/h
Spd
kts
Gust
kts
28/11:30pm 19.4 18.7 18.7 96 0.4 ESE 20 28 11 15 1022.3 1021.7 0.2
28/11:00pm 19.6 20.7 18.9 96 0.4 SE 11 17 6 9 1022.8 1022.2 0.0
28/10:30pm 19.9 19.9 18.9 94 0.6 ESE 17 28 9 15 1022.8 1022.2 0.0
28/10:00pm 19.8 20.0 18.6 93 0.8 ESE 15 22 8 12 1022.8 1022.2 0.0
28/09:30pm 20.0 19.6 19.0 94 0.6 ESE 19 24 10 13 1022.8 1022.2 0.0
28/09:00pm 20.1 19.5 18.9 93 0.8 SE 20 28 11 15 1022.7 1022.1 0.0
28/08:30pm 20.1 19.4 18.2 89 1.2 ESE 19 28 10 15 1022.6 1022.0 0.0
28/08:00pm 20.1 19.7 18.1 88 1.2 ESE 17 26 9 14 1022.5 1021.9 0.0
28/07:30pm 20.3 19.9 18.1 87 1.4 ESE 17 24 9 13 1022.2 1021.6 0.0
28/07:00pm 20.6 20.0 18.5 88 1.3 ESE 19 28 10 15 1021.9 1021.3 0.0
28/06:30pm 20.3 20.0 18.2 88 1.3 ESE 17 26 9 14 1021.7 1021.1 0.0
28/06:00pm 20.5 19.5 17.9 85 1.6 ESE 20 30 11 16 1021.4 1020.7 0.0
28/05:30pm 20.7 20.3 18.1 85 1.6 ESE 17 24 9 13 1021.4 1020.7 0.0
28/05:00pm 20.7 20.3 18.1 85 1.6 ESE 17 26 9 14 1021.3 1020.6 0.0
28/04:30pm 20.9 21.3 18.1 84 1.8 ESE 13 19 7 10 1021.2 1020.5 0.0
28/04:00pm 21.2 21.2 18.0 82 2.0 ESE 15 22 8 12 1021.1 1020.4 0.0
28/03:30pm 21.2 21.5 18.0 82 2.0 ESE 13 22 7 12 1020.9 1020.2 0.0
28/03:00pm 21.6 21.8 18.6 83 1.9 ESE 15 22 8 12 1020.6 1019.9 0.0
28/02:30pm 21.2 21.2 18.2 83 1.9 SE 15 20 8 11 1020.7 1020.0 0.0
28/02:00pm 21.5 22.4 18.5 83 1.9 ESE 11 22 6 12 1020.8 1020.1 0.0
28/01:30pm 21.9 21.2 18.3 80 2.3 ESE 19 26 10 14 1020.9 1020.2 0.0
28/01:00pm 22.1 22.2 18.3 79 2.4 ESE 15 24 8 13 1021.2 1020.5 0.0
28/12:30pm 22.6 22.4 18.4 77 2.7 SE 17 24 9 13 1021.5 1020.9 0.0
28/12:00pm 22.7 22.4 18.3 76 2.8 SE 17 28 9 15 1022.0 1021.4 0.0
28/11:30am 23.6 24.5 18.3 72 3.4 ENE 11 20 6 11 1022.4 1021.8 0.0
28/11:00am 23.1 24.5 18.6 76 2.9 E 9 17 5 9 1022.7 1022.1 0.0
28/10:30am 22.0 22.0 18.0 78 2.5 ENE 15 22 8 12 1022.7 1022.1 0.0
28/10:00am 21.7 22.8 18.1 80 2.3 E 9 20 5 11 1022.8 1022.2 0.0
28/09:30am 21.6 22.3 18.0 80 2.3 E 11 20 6 11 1022.7 1022.1 0.0
28/09:00am 21.7 22.7 17.7 78 2.5 E 9 15 5 8 1022.4 1021.8 0.0
28/08:30am 21.4 22.6 17.4 78 2.5 E 7 19 4 10 1022.2 1021.6 0.0
28/08:00am 21.3 21.3 17.3 78 2.5 E 13 24 7 13 1022.1 1021.5 0.0
28/07:30am 20.7 20.7 17.3 81 2.1 ENE 13 24 7 13 1021.9 1021.3 0.0
28/07:00am 20.4 20.5 17.4 83 1.8 ENE 13 22 7 12 1021.6 1021.0 0.0
28/06:30am 20.3 20.5 17.7 85 1.6 ENE 13 22 7 12 1021.3 1020.6 0.0
28/06:00am 20.0 20.5 17.4 85 1.6 E 11 20 6 11 1021.0 1020.3 0.0
28/05:30am 20.1 20.1 17.3 84 1.7 ENE 13 28 7 15 1021.1 1020.4 0.0
28/05:00am 20.1 20.9 17.3 84 1.7 E 9 17 5 9 1021.0 1020.3 0.0
28/04:30am 20.0 20.8 17.2 84 1.7 E 9 17 5 9 1021.0 1020.3 0.0
28/04:00am 20.3 20.6 17.1 82 2.0 E 11 19 6 10 1021.1 1020.4 0.0
28/03:30am 20.3 20.6 16.9 81 2.1 E 11 24 6 13 1021.2 1020.5 0.0
28/03:00am 20.2 20.8 16.8 81 2.1 E 9 20 5 11 1021.3 1020.6 0.0
28/02:30am 20.1 19.8 16.5 80 2.2 E 13 24 7 13 1021.6 1021.0 0.0
28/02:00am 20.0 20.4 16.4 80 2.2 E 9 17 5 9 1021.8 1021.2 0.0
28/01:30am 20.1 19.7 16.3 79 2.3 E 13 26 7 14 1021.8 1021.2 0.0
28/01:00am 20.1 19.3 16.1 78 2.4 E 15 32 8 17 1022.1 1021.5 0.0
28/12:30am 20.0 20.0 16.2 79 2.3 E 11 22 6 12 1022.2 1021.6 0.0
28/12:00am 20.0 19.2 16.0 78 2.4 E 15 24 8 13 1022.3 1021.7 0.0
 
Date/Time
EST
Temp
°C
App
Temp
°C
Dew
Point
°C
Rel
Hum
%
Delta-T
°C
Wind Press
QNH
hPa
Press
MSL
hPa
Rain since
9am
mm
Dir  Spd
km/h
Gust
km/h
Spd
kts
Gust
kts
27/11:30pm 20.0 19.6 16.2 79 2.3 E 13 24 7 13 1022.4 1021.8 0.0
27/11:00pm 19.9 19.9 16.3 80 2.2 ESE 11 20 6 11 1022.7 1022.1 0.0
27/10:30pm 19.9 19.9 16.3 80 2.2 ESE 11 28 6 15 1022.7 1022.1 0.0
27/10:00pm 20.0 19.6 16.2 79 2.3 ESE 13 30 7 16 1022.7 1022.1 0.0
27/09:30pm 20.1 19.2 16.9 82 2.0 ESE 17 24 9 13 1022.9 1022.3 0.0
27/09:00pm 20.0 18.4 17.4 85 1.6 ESE 22 35 12 19 1022.8 1022.2 0.0
27/08:30pm 20.1 18.4 17.3 84 1.7 ESE 22 33 12 18 1022.8 1022.2 0.0
27/08:00pm 20.0 17.8 16.8 82 1.9 ESE 24 37 13 20 1022.6 1022.0 0.0
27/07:30pm 19.9 18.0 16.7 82 2.0 ESE 22 33 12 18 1022.4 1021.8 0.0
27/07:00pm 19.8 18.2 16.6 82 1.9 ESE 20 28 11 15 1022.4 1021.8 0.0
27/06:30pm 19.9 18.8 16.3 80 2.2 ESE 17 28 9 15 1022.3 1021.7 0.0
27/06:00pm 20.0 18.5 16.2 79 2.3 ESE 19 28 10 15 1022.2 1021.6 0.0
27/05:30pm 20.0 18.5 16.4 80 2.2 ESE 19 30 10 16 1022.1 1021.5 0.0
27/05:00pm 20.2 18.7 16.2 78 2.4 ESE 19 28 10 15 1022.0 1021.4 0.0
27/04:30pm 20.7 18.4 15.7 73 3.0 ESE 22 33 12 18 1021.6 1021.0 0.0
27/04:00pm 20.8 18.2 16.0 74 2.9 ESE 24 35 13 19 1021.3 1020.6 0.0
27/03:30pm 21.0 17.9 15.5 71 3.3 ESE 26 35 14 19 1021.0 1020.3 0.0
27/03:00pm 21.3 18.5 16.3 73 3.0 ESE 26 35 14 19 1021.0 1020.3 0.0
27/02:30pm 21.4 18.6 16.4 73 3.1 ESE 26 37 14 20 1021.1 1020.4 0.0
27/02:00pm 21.6 17.9 17.0 75 2.8 SE 32 39 17 21 1021.2 1020.5 0.0
27/01:30pm 21.9 19.7 16.8 73 3.1 ESE 24 35 13 19 1021.4 1020.7 0.0
27/01:00pm 21.5 18.5 16.9 75 2.8 ESE 28 39 15 21 1021.7 1021.1 0.0
27/12:30pm 21.5 18.7 17.3 77 2.6 ESE 28 37 15 20 1022.0 1021.4 0.0
27/12:00pm 21.2 19.2 17.4 79 2.3 ESE 24 35 13 19 1022.4 1021.8 0.0
27/11:30am 22.1 20.5 18.3 79 2.4 ESE 24 33 13 18 1022.8 1022.2 0.0
27/11:00am 22.4 20.8 17.5 74 3.0 SE 22 32 12 17 1022.8 1022.2 0.0
27/10:30am 22.0 20.0 17.4 75 2.9 ESE 24 35 13 19 1022.9 1022.3 0.0
27/10:00am 21.6 20.4 17.4 77 2.6 ESE 20 30 11 16 1022.9 1022.3 0.0
27/09:30am 21.3 19.5 16.9 76 2.7 ESE 22 32 12 17 1022.9 1022.3 0.0
27/09:00am 20.8 19.1 17.2 80 2.2 ESE 22 32 12 17 1022.8 1022.2 0.0
27/08:30am 20.4 19.1 17.2 82 2.0 ESE 20 30 11 16 1022.6 1022.0 0.0
27/08:00am 20.3 18.6 17.1 82 2.0 ESE 22 32 12 17 1022.2 1021.6 0.0
27/07:30am 20.4 17.9 17.2 82 2.0 SE 26 33 14 18 1021.7 1021.1 0.0
27/07:00am 19.7 18.8 17.8 89 1.2 SE 19 28 10 15 1021.4 1020.7 0.0
27/06:30am 19.4 18.3 17.2 87 1.3 SSE 19 24 10 13 1021.3 1020.6 0.0
27/06:00am 19.3 18.1 17.1 87 1.3 SE 19 28 10 15 1021.0 1020.3 0.0
27/05:30am 19.3 18.1 17.1 87 1.3 SE 19 28 10 15 1021.0 1020.3 0.0
27/05:00am 19.0 18.1 16.8 87 1.3 ESE 17 22 9 12 1020.9 1020.2 0.0
27/04:30am 19.1 18.1 16.7 86 1.5 SE 17 24 9 13 1020.9 1020.2 0.0
27/04:00am 19.0 17.5 16.4 85 1.6 SE 19 26 10 14 1021.0 1020.3 0.0
27/03:30am 19.0 18.4 16.6 86 1.5 ESE 15 24 8 13 1021.1 1020.4 0.0
27/03:00am 19.2 18.6 16.6 85 1.6 ESE 15 22 8 12 1021.3 1020.6 0.0
27/02:30am 19.2 18.9 16.4 84 1.7 ESE 13 22 7 12 1021.3 1020.6 0.0
27/02:00am 19.1 18.4 16.3 84 1.7 ESE 15 20 8 11 1021.4 1020.7 0.0
27/01:30am 19.3 18.9 16.2 82 1.9 ESE 13 26 7 14 1021.5 1020.9 0.0
27/01:00am 19.1 19.1 16.3 84 1.7 ESE 11 17 6 9 1021.7 1021.1 0.0
27/12:30am 19.1 19.1 16.3 84 1.7 ESE 11 17 6 9 1021.8 1021.2 0.0
27/12:00am 19.1 19.2 16.5 85 1.6 ESE 11 17 6 9 1021.9 1021.3 0.0
 
Date/Time
EST
Temp
°C
App
Temp
°C
Dew
Point
°C
Rel
Hum
%
Delta-T
°C
Wind Press
QNH
hPa
Press
MSL
hPa
Rain since
9am
mm
Dir  Spd
km/h
Gust
km/h
Spd
kts
Gust
kts
26/11:30pm 19.0 18.9 16.0 83 1.8 ESE 11 20 6 11 1022.0 1021.4 0.0
26/11:00pm 19.0 18.7 15.5 80 2.1 E 11 19 6 10 1022.2 1021.6 0.0
26/10:30pm 18.8 18.1 15.5 81 2.0 ESE 13 19 7 10 1022.2 1021.6 0.0
26/10:00pm 18.7 18.1 15.6 82 1.8 ESE 13 20 7 11 1022.2 1021.6 0.0
26/09:30pm 18.6 17.9 15.3 81 2.0 ESE 13 19 7 10 1022.1 1021.5 0.0
26/09:00pm 18.7 17.6 15.4 81 2.0 ESE 15 20 8 11 1021.9 1021.3 0.0
26/08:30pm 18.8 18.1 15.5 81 2.0 ESE 13 17 7 9 1021.7 1021.1 0.0
26/08:00pm 18.7 18.0 15.4 81 2.0 ESE 13 19 7 10 1021.5 1020.9 0.0
26/07:30pm 18.8 18.1 15.3 80 2.1 ESE 13 20 7 11 1021.3 1020.6 0.0
26/07:00pm 18.8 18.1 15.3 80 2.1 ESE 13 17 7 9 1021.3 1020.6 0.0
26/06:30pm 18.8 18.5 15.5 81 2.0 SE 11 17 6 9 1020.9 1020.2 0.0
26/06:00pm 19.0 18.8 15.7 81 2.0 ESE 11 17 6 9 1020.6 1019.9 0.0
26/05:30pm 19.0 18.7 15.5 80 2.1 SE 11 17 6 9 1020.5 1019.8 0.0
26/05:00pm 19.7 19.0 15.4 76 2.6 SE 13 19 7 10 1020.4 1019.7 0.0
26/04:30pm 20.4 19.9 15.8 75 2.8 SE 13 19 7 10 1020.2 1019.6 0.0
26/04:00pm 20.9 20.2 15.4 71 3.3 ESE 13 19 7 10 1020.1 1019.5 0.0
26/03:30pm 21.4 20.5 15.9 71 3.3 ESE 15 19 8 10 1019.9 1019.3 0.0
26/03:00pm 21.7 21.0 15.5 68 3.7 ESE 13 19 7 10 1019.8 1019.2 0.0
26/02:30pm 21.7 20.9 16.0 70 3.5 SE 15 20 8 11 1019.9 1019.3 0.0
26/02:00pm 21.9 21.1 16.0 69 3.6 ESE 15 20 8 11 1020.0 1019.4 0.0
26/01:30pm 22.0 20.8 16.1 69 3.6 ESE 17 20 9 11 1020.1 1019.5 0.0
26/01:00pm 21.7 20.9 16.0 70 3.5 ESE 15 20 8 11 1020.5 1019.8 0.0
26/12:30pm 22.1 21.3 16.1 69 3.7 ESE 15 20 8 11 1020.8 1020.1 0.0
26/12:00pm 22.2 21.6 16.7 71 3.4 ESE 15 20 8 11 1021.1 1020.4 0.0
26/11:30am 21.9 21.2 16.4 71 3.4 SE 15 20 8 11 1021.4 1020.7 0.0
26/11:00am 21.9 21.1 16.2 70 3.5 ESE 15 24 8 13 1021.4 1020.7 0.0
26/10:30am 21.7 20.5 16.2 71 3.3 ESE 17 24 9 13 1021.5 1020.9 0.0
26/10:00am 21.4 20.5 15.9 71 3.3 SE 15 26 8 14 1021.4 1020.7 0.0
26/09:30am 21.2 20.1 16.4 74 2.9 ESE 17 26 9 14 1021.4 1020.7 0.0
26/09:00am 21.0 20.2 16.2 74 2.9 ESE 15 24 8 13 1021.4 1020.7 0.0
26/08:30am 20.6 19.8 16.2 76 2.7 ESE 15 24 8 13 1021.3 1020.6 0.0
26/08:00am 20.3 19.4 15.9 76 2.6 ESE 15 24 8 13 1021.1 1020.4 0.0
26/07:30am 19.7 19.3 16.3 81 2.1 ESE 13 19 7 10 1020.7 1020.0 0.0
26/07:00am 19.2 18.9 16.4 84 1.7 ESE 13 20 7 11 1020.2 1019.6 0.0
26/06:30am 19.0 18.9 16.0 83 1.8 ESE 11 20 6 11 1019.7 1019.1 0.0
26/06:00am 18.9 18.5 16.1 84 1.7 ESE 13 20 7 11 1019.4 1018.8 0.0
26/05:30am 18.6 18.6 16.2 86 1.4 ESE 11 17 6 9 1019.2 1018.6 0.0

Other Formats:

Comma delimited format used in spreadsheet applications
http://www.bom.gov.au/fwo/IDQ60801/IDQ60801.94372.axf

JavaScript Object Notation format (JSON) in row-major order
http://www.bom.gov.au/fwo/IDQ60801/IDQ60801.94372.json